Latest Weather Observations for Terrey Hills

IDN60801

Issued at 11:35 pm EST Monday 1 September 2014 (issued every 30 minutes, with the page automatically refreshed every 10 minutes)

About weather observations | Map of weather stations | Latest weather observations for NSW | Other Formats
Station Details ID: 066059 Name: TERREY HILLS AWS Lat: -33.69 Lon: 151.23 Height: 199.0 m
Data from the previous 72 hours. | See also: Recent months at Terrey Hills
Date/Time
EST
Temp
°C
App
Temp
°C
Dew
Point
Rel
Hum
%
Delta-T
°C
Wind Press
QNH
hPa
Press
MSL
hPa
Rain
since 9 am
mm
Dir
 
Spd
km/h
Gust
km/h
Spd
kts
Gust
kts
01/11:30pm 16.5 13.7 5.2 47 5.5 N 9 13 5 7 - - 0.0
01/11:00pm 17.2 14.7 4.5 43 6.1 NNW 7 13 4 7 - - 0.0
01/10:30pm 16.7 14.4 4.7 45 5.7 NNW 6 7 3 4 - - 0.0
01/10:00pm 16.9 14.4 4.9 45 5.8 NW 7 11 4 6 - - 0.0
01/09:30pm 16.4 14.2 5.4 48 5.3 NW 6 11 3 6 - - 0.0
01/09:00pm 17.1 14.4 5.7 47 5.6 NW 9 15 5 8 - - 0.0
01/08:30pm 16.8 14.2 6.0 49 5.3 NW 9 19 5 10 - - 0.0
01/08:00pm 17.0 14.4 6.2 49 5.3 NW 9 15 5 8 - - 0.0
01/07:30pm 17.1 15.1 6.9 51 5.1 NW 7 17 4 9 - - 0.0
01/07:00pm 17.1 15.3 8.0 55 4.7 NW 7 15 4 8 - - 0.0
01/06:30pm 17.3 15.8 9.2 59 4.3 N 7 13 4 7 - - 0.0
01/06:00pm 17.0 16.1 10.6 66 3.4 NNE 6 9 3 5 - - 0.0
01/05:30pm 17.0 16.0 10.4 65 3.5 NE 6 9 3 5 - - 0.0
01/05:00pm 17.1 16.0 9.8 62 3.9 NE 6 9 3 5 - - 0.0
01/04:30pm 18.1 17.1 10.2 60 4.2 NE 6 11 3 6 - - 0.0
01/04:00pm 18.6 17.4 10.2 58 4.5 NE 7 13 4 7 - - 0.0
01/03:30pm 19.7 18.2 9.3 51 5.6 NE 7 13 4 7 - - 0.0
01/03:00pm 20.8 18.6 6.0 38 7.5 NNE 7 11 4 6 - - 0.0
01/02:30pm 22.3 20.2 5.7 34 8.4 WNW 6 15 3 8 - - 0.0
01/02:00pm 21.4 18.9 4.9 34 8.2 N 7 13 4 7 - - 0.0
01/01:30pm 21.3 19.2 5.6 36 7.9 WNW 6 11 3 6 - - 0.0
01/01:00pm 21.3 19.4 6.8 39 7.5 NW 6 11 3 6 - - 0.0
01/12:30pm 21.1 19.4 7.7 42 7.0 NW 6 13 3 7 - - 0.0
01/12:00pm 20.0 17.9 6.7 42 6.8 WNW 7 17 4 9 - - 0.0
01/11:30am 19.5 17.5 7.3 45 6.3 NW 7 13 4 7 - - 0.0
01/11:00am 18.3 16.7 8.8 54 5.0 WNW 7 13 4 7 - - 0.0
01/10:30am 17.9 16.9 10.3 61 4.1 NNW 6 11 3 6 - - 0.0
01/10:00am 16.8 15.6 10.4 66 3.4 NW 7 13 4 7 - - 0.0
01/09:30am 15.3 14.4 10.7 74 2.5 W 6 11 3 6 - - 0.0
01/09:00am 14.0 13.2 11.0 82 1.6 WNW 6 9 3 5 - - 0.2
01/08:30am 13.3 12.4 11.2 87 1.1 WNW 7 11 4 6 - - 0.2
01/08:00am 12.2 10.8 10.8 91 0.7 NW 9 15 5 8 - - 0.2
01/07:30am 11.1 9.8 11.1 100 0.0 NW 9 15 5 8 - - 0.2
01/07:00am 10.1 8.5 10.1 100 0.0 NW 9 13 5 7 - - 0.2
01/06:30am 8.6 6.9 8.5 99 0.0 WNW 7 13 4 7 - - 0.2
01/06:00am 8.8 7.2 8.7 99 0.0 WNW 7 11 4 6 - - 0.2
01/05:30am 8.0 6.2 7.9 99 0.0 WNW 7 9 4 5 - - 0.2
01/05:00am 8.9 7.3 8.8 99 0.0 WNW 7 9 4 5 - - 0.2
01/04:30am 10.0 8.9 9.9 99 0.1 NW 6 9 3 5 - - 0.2
01/04:00am 9.5 8.6 9.4 99 0.1 NW 4 7 2 4 - - 0.0
01/03:30am 9.5 8.6 9.4 99 0.1 NW 4 7 2 4 - - 0.0
01/03:00am 10.7 9.8 10.5 99 0.1 NW 6 7 3 4 - - 0.0
01/02:30am 11.5 10.8 11.3 99 0.1 NW 6 7 3 4 - - 0.0
01/02:00am 11.9 11.4 11.9 100 0.0 NNW 6 7 3 4 - - 0.0
01/01:30am 12.4 11.8 12.4 100 0.0 N 7 9 4 5 - - 0.0
01/01:00am 11.7 11.1 11.7 100 0.0 WNW 6 7 3 4 - - 0.0
01/12:30am 11.9 11.4 11.9 100 0.0 WNW 6 6 3 3 - - 0.0
01/12:00am 11.8 11.2 11.8 100 0.0 WNW 6 7 3 4 - - 0.0
 
Date/Time
EST
Temp
°C
App
Temp
°C
Dew
Point
Rel
Hum
%
Delta-T
°C
Wind Press
QNH
hPa
Press
MSL
hPa
Rain
since 9 am
mm
Dir
 
Spd
km/h
Gust
km/h
Spd
kts
Gust
kts
31/11:30pm 12.0 11.5 12.0 100 0.0 W 6 7 3 4 - - 0.0
31/11:00pm 11.9 11.4 11.9 100 0.0 WNW 6 7 3 4 - - 0.0
31/10:30pm 11.3 10.3 11.1 99 0.1 W 7 9 4 5 - - 0.0
31/10:00pm 12.9 12.6 12.7 99 0.1 N 6 7 3 4 - - 0.0
31/09:30pm 12.5 12.8 12.3 99 0.1 NE 2 7 1 4 - - 0.0
31/09:00pm 12.3 12.2 12.0 98 0.2 NE 4 9 2 5 - - 0.0
31/08:30pm 12.3 11.7 11.8 97 0.3 NE 6 7 3 4 - - 0.0
31/08:00pm 12.5 11.8 11.9 96 0.3 ENE 7 11 4 6 - - 0.0
31/07:30pm 12.9 12.3 12.3 96 0.3 ENE 7 9 4 5 - - 0.0
31/07:00pm 13.0 12.4 12.2 95 0.4 ENE 7 9 4 5 - - 0.0
31/06:30pm 13.2 12.5 12.1 93 0.6 E 7 9 4 5 - - 0.0
31/06:00pm 13.4 12.7 12.0 91 0.8 E 7 9 4 5 - - 0.0
31/05:30pm 14.2 13.5 11.9 86 1.3 E 7 11 4 6 - - 0.0
31/05:00pm 15.0 13.9 11.8 81 1.7 ESE 9 13 5 7 - - 0.0
31/04:30pm 15.6 14.4 11.6 77 2.2 ESE 9 13 5 7 - - 0.0
31/04:00pm 16.1 15.0 11.9 76 2.3 ESE 9 13 5 7 - - 0.0
31/03:30pm 16.7 15.6 12.0 74 2.6 E 9 17 5 9 - - 0.0
31/03:00pm 17.3 16.4 12.6 74 2.6 E 9 15 5 8 - - 0.0
31/02:30pm 17.3 16.2 12.0 71 2.9 ESE 9 17 5 9 - - 0.0
31/02:00pm 18.4 17.7 11.9 66 3.6 ESE 7 11 4 6 - - 0.0
31/01:30pm 17.9 17.4 10.8 63 3.9 SSE 4 7 2 4 - - 0.0
31/01:00pm 18.0 17.0 10.9 63 3.9 W 7 17 4 9 - - 0.0
31/12:30pm 16.9 15.7 10.3 65 3.5 SW 7 11 4 6 - - 0.0
31/12:00pm 17.4 16.5 11.2 67 3.4 WSW 7 13 4 7 - - 0.0
31/11:30am 15.9 14.3 10.2 69 3.0 SW 9 15 5 8 - - 0.0
31/11:00am 16.1 14.6 10.6 70 2.9 SW 9 17 5 9 - - 0.0
31/10:30am 15.7 14.3 10.9 73 2.6 WSW 9 17 5 9 - - 0.0
31/10:00am 15.4 14.1 11.2 76 2.3 WSW 9 19 5 10 - - 0.0
31/09:30am 14.6 13.1 10.6 77 2.1 WSW 9 15 5 8 - - 0.0
31/09:00am 13.8 11.8 10.0 78 2.0 WSW 11 20 6 11 - - 2.2
31/08:30am 13.2 10.8 10.0 81 1.7 W 13 22 7 12 - - 2.2
31/08:00am 12.5 9.6 9.7 83 1.4 WSW 15 26 8 14 - - 2.2
31/07:30am 11.7 8.7 9.4 86 1.2 WSW 15 22 8 12 - - 2.2
31/07:00am 11.1 8.5 9.2 88 1.0 WSW 13 20 7 11 - - 2.2
31/06:30am 10.7 8.0 9.0 89 0.9 WSW 13 19 7 10 - - 2.2
31/06:00am 11.2 8.2 9.3 88 1.0 WSW 15 20 8 11 - - 2.2
31/05:30am 11.4 8.8 9.5 88 1.0 WSW 13 19 7 10 - - 2.2
31/05:00am 11.3 8.8 9.6 89 0.9 WSW 13 20 7 11 - - 2.2
31/04:30am 11.3 8.8 9.6 89 0.9 WSW 13 19 7 10 - - 2.2
31/04:00am 11.2 8.7 9.6 90 0.8 W 13 20 7 11 - - 2.2
31/03:30am 11.0 8.9 9.6 91 0.7 W 11 19 6 10 - - 2.2
31/03:00am 11.3 8.4 9.7 90 0.8 WSW 15 20 8 11 - - 2.2
31/02:30am 11.3 8.9 9.9 91 0.7 WSW 13 20 7 11 - - 2.2
31/02:00am 11.5 9.1 10.1 91 0.7 WSW 13 20 7 11 - - 2.2
31/01:30am 12.0 9.4 10.6 91 0.7 WSW 15 22 8 12 - - 2.2
31/01:00am 11.9 9.6 10.6 92 0.7 WSW 13 19 7 10 - - 2.2
31/12:30am 11.7 9.9 10.9 95 0.4 WSW 11 19 6 10 - - 2.2
31/12:00am 11.7 9.5 10.9 95 0.4 WSW 13 20 7 11 - - 2.2
 
Date/Time
EST
Temp
°C
App
Temp
°C
Dew
Point
Rel
Hum
%
Delta-T
°C
Wind Press
QNH
hPa
Press
MSL
hPa
Rain
since 9 am
mm
Dir
 
Spd
km/h
Gust
km/h
Spd
kts
Gust
kts
30/11:30pm 12.0 9.5 10.9 93 0.6 WSW 15 22 8 12 - - 2.2
30/11:00pm 12.2 10.0 10.9 92 0.7 SW 13 20 7 11 - - 2.2
30/10:30pm 12.1 9.6 11.2 94 0.5 SW 15 28 8 15 - - 2.2
30/10:00pm 11.8 9.4 11.5 98 0.2 SW 15 24 8 13 - - 2.2
30/09:30pm 11.9 9.9 11.6 98 0.2 SW 13 20 7 11 - - 2.2
30/09:00pm 12.0 10.1 11.7 98 0.2 SW 13 24 7 13 - - 2.0
30/08:30pm 12.3 10.4 11.7 96 0.3 SW 13 20 7 11 - - 2.0
30/08:00pm 12.3 10.4 11.7 96 0.3 SW 13 20 7 11 - - 2.0
30/07:30pm 12.3 10.7 11.7 96 0.3 SW 11 20 6 11 - - 2.0
30/07:00pm 12.7 10.4 11.9 95 0.4 SW 15 26 8 14 - - 1.8
30/06:30pm 12.5 10.7 12.0 97 0.3 SW 13 24 7 13 - - 1.8
30/06:00pm 12.9 10.7 12.1 95 0.4 SW 15 26 8 14 - - 1.8
30/05:30pm 13.2 10.6 12.1 93 0.6 SSW 17 33 9 18 - - 1.6
30/05:00pm 13.6 11.0 12.0 90 0.9 SSW 17 28 9 15 - - 1.6
30/04:30pm 13.6 11.1 12.2 91 0.8 SSW 17 30 9 16 - - 1.6
30/04:00pm 13.7 11.7 12.8 94 0.5 SSW 15 24 8 13 - - 1.6
30/03:30pm 13.6 11.3 13.0 96 0.3 SW 17 24 9 13 - - 1.6
30/03:00pm 14.0 11.6 12.7 92 0.7 SSW 17 30 9 16 - - 1.6
30/02:30pm 13.8 12.3 13.0 95 0.4 SSW 13 30 7 16 - - 1.6
30/02:00pm 14.1 12.7 13.5 96 0.3 SSW 13 30 7 16 - - 1.4
30/01:30pm 13.9 12.1 13.4 97 0.3 SSW 15 24 8 13 - - 1.2
30/01:00pm 13.3 10.6 13.0 98 0.2 SSW 19 33 10 18 - - 1.2
30/12:30pm 13.9 11.8 13.6 98 0.2 SW 17 30 9 16 - - 1.0
30/12:00pm 13.2 10.9 13.0 99 0.1 SSW 17 26 9 14 - - 1.0
30/11:30am 12.5 10.1 12.5 100 0.0 SW 17 30 9 16 - - 1.0
30/11:00am 11.8 9.5 11.8 100 0.0 SW 15 30 8 16 - - 1.0
30/10:30am 11.6 9.6 11.6 100 0.0 WSW 13 24 7 13 - - 0.2
30/10:00am 11.3 8.5 11.3 100 0.0 WSW 17 28 9 15 - - 0.0
30/09:30am 10.6 7.5 10.4 99 0.1 WSW 17 24 9 13 - - 0.0
30/09:00am 10.3 6.8 10.1 99 0.1 WSW 19 30 10 16 - - 2.4
30/08:30am 10.4 7.3 10.2 99 0.1 WSW 17 28 9 15 - - 2.0
30/08:00am 10.6 7.9 10.4 99 0.1 WSW 15 22 8 12 - - 1.8
30/07:30am 10.9 7.9 10.6 98 0.2 SW 17 26 9 14 - - 1.8
30/07:00am 10.9 7.7 10.1 95 0.4 SW 17 30 9 16 - - 1.6
30/06:30am 11.3 8.0 9.7 90 0.8 SW 17 28 9 15 - - 1.6
30/06:00am 11.9 8.1 9.8 87 1.1 SSW 20 32 11 17 - - 1.6
30/05:30am 11.7 7.9 9.8 88 1.0 SSW 20 37 11 20 - - 1.6
30/05:00am 11.5 7.6 9.6 88 1.0 SSW 20 39 11 21 - - 1.6
30/04:30am 11.1 7.4 10.0 93 0.6 SSW 20 33 11 18 - - 1.6
30/04:00am 11.0 7.0 8.1 82 1.4 SW 19 33 10 18 - - 1.6
30/03:30am 11.3 7.4 7.2 76 2.0 SW 17 28 9 15 - - 1.6
30/03:00am 11.3 7.0 6.8 74 2.2 SW 19 30 10 16 - - 1.6
30/02:30am 11.2 7.6 6.7 74 2.2 SW 15 30 8 16 - - 1.6
30/02:00am 11.3 7.7 6.8 74 2.2 SW 15 26 8 14 - - 1.6
30/01:30am 11.3 6.9 6.6 73 2.2 SW 19 33 10 18 - - 1.6
30/01:00am 11.3 7.3 6.8 74 2.2 SW 17 35 9 19 - - 1.6
30/12:30am 11.4 7.7 6.5 72 2.3 SW 15 28 8 15 - - 1.6
30/12:00am 11.6 7.6 6.5 71 2.4 SW 17 30 9 16 - - 1.6

Other Formats:

Comma delimited format used in spreadsheet applications
http://www.bom.gov.au/fwo/IDN60801/IDN60801.94759.axf

JavaScript Object Notation format (JSON) in row-major order
http://www.bom.gov.au/fwo/IDN60801/IDN60801.94759.json